Time;durP1;ratioP1;P1;durP2;ratioP2;P2;SDS_P1;SDS_P2;PMS_P1;PMS_P2;Temp;Humidity;BMP_temperature;BMP_pressure;BME280_temperature;BME280_humidity;BME280_pressure;Samples;Min_cycle;Max_cycle;Signal;HPM_P1;HPM_P2
2022/08/04 00:01:34;;;;;;;16.82;13.72;;;;;;;18.79;69.29;98785.22;1609482;88;25623;-56
2022/08/04 00:04:11;;;;;;;16.15;13.53;;;;;;;18.65;69.60;98789.33;1596474;89;25725;-57
2022/08/04 00:07:24;;;;;;;15.95;14.13;;;;;;;18.54;70.00;98786.33;1602615;89;25751;-57
2022/08/04 00:09:56;;;;;;;17.10;13.18;;;;;;;18.45;70.32;98776.63;1569591;91;27431;-57
2022/08/04 00:12:25;;;;;;;15.18;13.25;;;;;;;18.39;70.29;98783.05;1569165;91;25846;-57
2022/08/04 00:14:57;;;;;;;17.95;14.38;;;;;;;18.38;70.18;98780.04;1569703;91;25797;-57
2022/08/04 00:17:28;;;;;;;15.65;13.90;;;;;;;18.40;70.19;98784.05;1542463;91;25693;-57
2022/08/04 00:19:59;;;;;;;18.60;14.47;;;;;;;18.38;70.20;98780.85;1571116;91;25557;-57
2022/08/04 00:22:29;;;;;;;17.92;13.88;;;;;;;18.39;70.16;98785.23;1571635;91;27565;-57
2022/08/04 00:24:57;;;;;;;17.52;14.73;;;;;;;18.46;70.20;98779.61;1571345;91;26008;-57
2022/08/04 00:27:23;;;;;;;17.48;15.50;;;;;;;18.41;70.54;98782.09;1571228;91;25757;-57
2022/08/04 00:29:51;;;;;;;16.97;14.65;;;;;;;18.37;70.59;98779.83;1571019;91;25762;-57
2022/08/04 00:32:18;;;;;;;16.73;14.53;;;;;;;18.35;70.57;98777.42;1571533;91;25572;-57
2022/08/04 00:34:46;;;;;;;19.00;14.13;;;;;;;18.36;70.61;98776.84;1571165;91;27524;-57
2022/08/04 00:37:14;;;;;;;17.27;14.00;;;;;;;18.38;70.83;98778.08;1571354;91;25555;-57
2022/08/04 00:39:42;;;;;;;17.90;14.55;;;;;;;18.40;70.33;98783.27;1577610;88;25520;-57
2022/08/04 00:42:22;;;;;;;22.20;14.95;;;;;;;18.47;70.16;98788.95;1607155;89;25978;-58
2022/08/04 00:45:03;;;;;;;;;;;;;;;18.52;69.93;98785.91;1600682;89;25614;-58
2022/08/04 00:48:01;;;;;;;18.50;14.65;;;;;;;18.59;69.85;98792.17;1598675;89;28311;-57
2022/08/04 00:51:04;;;;;;;17.00;13.70;;;;;;;18.61;69.76;98794.01;1609401;88;25590;-58
2022/08/04 00:53:57;;;;;;;17.48;13.75;;;;;;;18.52;70.09;98794.80;1624670;88;25648;-58
2022/08/04 00:57:09;;;;;;;20.27;14.20;;;;;;;18.28;70.70;98801.63;1624460;87;25880;-59
2022/08/04 00:59:57;;;;;;;19.60;15.40;;;;;;;18.16;70.91;98797.59;1624314;87;25647;-57
2022/08/04 01:02:55;;;;;;;20.60;14.75;;;;;;;18.14;70.99;98795.78;1624519;88;27414;-57
2022/08/04 01:05:50;;;;;;;19.48;14.63;;;;;;;18.14;71.17;98793.80;1629716;87;25601;-57
2022/08/04 01:08:30;;;;;;;17.57;13.83;;;;;;;18.18;71.05;98796.09;1631548;87;25854;-57
2022/08/04 01:11:05;;;;;;;19.85;14.63;;;;;;;18.23;70.96;98797.77;1633732;87;25682;-57
2022/08/04 01:13:57;;;;;;;16.55;13.75;;;;;;;18.22;70.97;98798.14;1633258;87;25709;-57
2022/08/04 01:16:26;;;;;;;16.80;13.38;;;;;;;18.15;70.95;98794.61;1633101;87;29490;-57
2022/08/04 01:19:02;;;;;;;17.60;13.58;;;;;;;18.13;71.20;98794.19;1632133;86;25691;-57
2022/08/04 01:21:36;;;;;;;18.00;14.33;;;;;;;18.13;71.04;98793.58;1631142;87;25485;-57
2022/08/04 01:24:30;;;;;;;15.25;13.38;;;;;;;18.15;71.14;98797.38;1543177;91;25892;-57
2022/08/04 01:27:02;;;;;;;16.60;13.45;;;;;;;18.13;71.13;98793.58;1543008;92;25596;-57
2022/08/04 01:29:34;;;;;;;16.32;13.70;;;;;;;18.15;71.12;98794.03;1542985;93;27453;-57
2022/08/04 01:32:06;;;;;;;15.93;12.78;;;;;;;18.08;71.15;98784.72;1543121;93;25570;-57
2022/08/04 01:34:42;;;;;;;13.95;12.37;;;;;;;17.99;71.31;98786.30;1543362;93;25781;-58
2022/08/04 01:37:17;;;;;;;18.32;13.45;;;;;;;17.88;71.54;98785.45;1542749;93;25747;-57
2022/08/04 01:40:03;;;;;;;20.92;14.35;;;;;;;17.78;71.66;98779.08;1542469;92;25804;-57
2022/08/04 01:42:32;;;;;;;17.27;14.45;;;;;;;17.75;71.85;98786.73;1542804;92;29610;-58
2022/08/04 01:45:09;;;;;;;18.92;14.90;;;;;;;17.65;72.08;98775.02;1543006;93;25831;-56
2022/08/04 01:47:39;;;;;;;18.15;14.73;;;;;;;17.66;72.02;98778.03;1543221;93;25706;-57
2022/08/04 01:50:10;;;;;;;19.92;14.68;;;;;;;17.57;72.20;98780.19;1541052;93;26516;-57
2022/08/04 01:52:40;;;;;;;20.55;15.28;;;;;;;17.54;72.28;98778.94;1543036;93;25704;-58
2022/08/04 01:55:10;;;;;;;18.60;15.35;;;;;;;17.43;72.61;98778.67;1542494;92;28149;-57
2022/08/04 01:57:46;;;;;;;18.37;14.93;;;;;;;17.33;73.03;98777.83;1543127;93;34856;-57
2022/08/04 02:00:19;;;;;;;16.85;14.35;;;;;;;17.29;73.08;98780.49;1543208;93;25747;-59
2022/08/04 02:02:46;;;;;;;18.17;14.43;;;;;;;17.32;73.19;98780.95;1632051;87;26624;-59
2022/08/04 02:05:20;;;;;;;21.75;13.78;;;;;;;17.30;73.15;98777.94;1631909;87;25680;-58
2022/08/04 02:08:16;;;;;;;15.13;13.53;;;;;;;17.17;74.26;98775.03;1632180;87;27396;-60
2022/08/04 02:11:02;;;;;;;16.35;13.53;;;;;;;17.03;74.05;98780.38;1631094;87;27236;-58
2022/08/04 02:13:55;;;;;;;15.70;13.00;;;;;;;17.00;74.23;98776.13;1631983;87;25613;-57
2022/08/04 02:16:48;;;;;;;16.90;13.45;;;;;;;16.91;74.94;98779.88;1631527;87;25734;-58
2022/08/04 02:19:34;;;;;;;14.68;12.63;;;;;;;16.82;75.17;98773.69;1632255;87;25589;-57
2022/08/04 02:22:09;;;;;;;17.07;13.28;;;;;;;16.78;75.16;98772.80;1627789;87;27705;-58
2022/08/04 02:24:41;;;;;;;14.90;11.95;;;;;;;16.75;75.21;98769.34;1632205;86;25698;-57
2022/08/04 02:27:08;;;;;;;16.55;12.33;;;;;;;16.75;75.22;98771.52;1631374;87;25515;-58
2022/08/04 02:29:51;;;;;;;15.45;13.03;;;;;;;16.83;75.18;98767.55;1631856;87;26559;-58
2022/08/04 02:32:27;;;;;;;14.68;12.68;;;;;;;16.84;75.32;98768.59;1632277;87;25604;-58
2022/08/04 02:35:07;;;;;;;16.97;13.20;;;;;;;16.89;75.10;98761.99;1632202;87;27456;-57
2022/08/04 02:37:34;;;;;;;15.65;12.53;;;;;;;16.80;75.30;98762.97;1632150;87;25767;-57
2022/08/04 02:40:06;;;;;;;15.93;13.10;;;;;;;16.74;75.46;98762.18;1631948;87;25708;-57
2022/08/04 02:42:34;;;;;;;17.05;13.28;;;;;;;16.70;75.49;98760.72;1631982;87;26558;-57
2022/08/04 02:45:03;;;;;;;13.90;12.23;;;;;;;16.64;75.68;98758.77;1632094;87;25431;-57
2022/08/04 02:47:30;;;;;;;14.60;13.05;;;;;;;16.59;75.89;98761.80;1632043;87;27387;-58
2022/08/04 02:49:57;;;;;;;15.25;13.43;;;;;;;16.54;75.93;98760.66;1631814;87;25644;-58
2022/08/04 02:52:25;;;;;;;15.78;13.10;;;;;;;16.55;75.95;98753.95;1631782;86;25692;-62
2022/08/04 02:54:55;;;;;;;15.98;13.28;;;;;;;16.65;75.89;98756.81;1631615;87;25661;-58
2022/08/04 02:57:25;;;;;;;14.67;13.13;;;;;;;16.65;75.81;98761.77;1632263;87;25660;-58
2022/08/04 03:00:13;;;;;;;16.45;13.15;;;;;;;16.60;75.89;98759.81;1632289;87;27399;-58
2022/08/04 03:03:06;;;;;;;16.77;13.83;;;;;;;16.58;75.91;98762.94;1631971;87;25435;-58
2022/08/04 03:05:54;;;;;;;14.63;12.98;;;;;;;16.60;76.12;98761.20;1631583;86;25648;-57
2022/08/04 03:08:46;;;;;;;16.97;13.83;;;;;;;16.67;75.90;98753.91;1631247;87;25758;-58
2022/08/04 03:11:47;;;;;;;19.27;13.65;;;;;;;16.66;75.96;98756.45;1632001;87;25623;-58
2022/08/04 03:14:40;;;;;;;17.37;13.43;;;;;;;16.61;76.08;98759.47;1638957;87;27546;-56
2022/08/04 03:17:48;;;;;;;16.45;13.38;;;;;;;16.58;76.23;98758.78;1631914;87;25555;-56
2022/08/04 03:21:04;;;;;;;17.00;13.25;;;;;;;16.57;76.30;98762.72;1631415;87;25433;-57
2022/08/04 03:24:12;;;;;;;17.52;13.28;;;;;;;16.58;76.37;98762.94;1631727;87;25753;-56
2022/08/04 03:27:34;;;;;;;18.57;13.38;;;;;;;16.71;76.47;98767.04;1632494;87;25572;-56
2022/08/04 03:30:18;;;;;;;16.55;13.18;;;;;;;16.81;76.30;98767.91;1631747;87;27483;-58
2022/08/04 03:33:15;;;;;;;16.50;13.53;;;;;;;16.86;76.17;98767.66;1631673;87;25688;-58
2022/08/04 03:36:25;;;;;;;18.37;13.90;;;;;;;16.93;76.13;98771.22;1631422;86;25502;-56
2022/08/04 03:39:31;;;;;;;19.37;14.23;;;;;;;16.95;75.69;98775.80;1631831;87;25962;-56
2022/08/04 03:42:08;;;;;;;16.65;12.75;;;;;;;16.81;75.97;98775.64;1632079;87;25623;-57
2022/08/04 03:45:08;;;;;;;16.25;13.32;;;;;;;16.76;76.25;98776.48;1632516;87;27739;-57
2022/08/04 03:47:59;;;;;;;17.42;12.82;;;;;;;16.81;76.37;98788.09;1631960;87;25470;-57
2022/08/04 03:54:16;;;;;;;19.62;13.90;;;;;;;16.76;76.51;98783.40;1631737;87;25450;-60
2022/08/04 03:57:34;;;;;;;21.85;14.93;;;;;;;16.74;76.91;98780.98;1631797;87;25695;-58
2022/08/04 04:00:24;;;;;;;21.10;16.07;;;;;;;16.77;77.06;98780.84;1631911;87;28249;-57
2022/08/04 04:03:25;;;;;;;20.23;15.83;;;;;;;16.84;77.20;98776.89;1631377;87;25675;-57
2022/08/04 04:06:15;;;;;;;20.52;16.32;;;;;;;16.93;77.32;98779.52;1631928;86;25441;-58
2022/08/04 04:09:26;;;;;;;25.77;16.70;;;;;;;17.06;77.60;98781.63;1632161;87;26710;-57
2022/08/04 04:12:15;;;;;;;22.32;18.10;;;;;;;17.21;77.72;98784.22;1626597;87;25444;-61
2022/08/04 04:15:09;;;;;;;21.90;17.50;;;;;;;17.37;78.00;98774.55;1626502;88;27661;-58
2022/08/04 04:17:53;;;;;;;19.50;16.45;;;;;;;17.50;77.91;98779.41;1626397;87;25885;-57
2022/08/04 04:20:33;;;;;;;21.45;16.55;;;;;;;17.65;78.13;98777.80;1625830;88;25625;-57
2022/08/04 04:23:27;;;;;;;19.67;16.40;;;;;;;17.82;77.79;98779.98;1626781;88;25688;-60
2022/08/04 04:26:35;;;;;;;19.98;17.30;;;;;;;17.93;77.48;98765.78;1626639;88;25497;-58
2022/08/04 04:29:28;;;;;;;21.37;17.57;;;;;;;18.16;77.45;98771.25;1626064;88;29506;-57
2022/08/04 04:32:21;;;;;;;20.45;17.17;;;;;;;18.30;77.40;98779.08;1626383;88;25631;-58
2022/08/04 04:35:11;;;;;;;21.60;17.37;;;;;;;18.44;77.29;98779.97;1627616;86;25455;-57
2022/08/04 04:37:58;;;;;;;22.65;17.12;;;;;;;18.57;76.98;98777.88;1628209;86;25638;-58
2022/08/04 04:41:05;;;;;;;22.13;17.62;;;;;;;18.62;77.24;98780.95;1638609;87;25989;-58
2022/08/04 04:44:10;;;;;;;19.20;15.38;;;;;;;18.59;77.27;98785.23;1632183;87;27386;-58
2022/08/04 04:46:51;;;;;;;25.62;17.15;;;;;;;18.61;77.51;98782.91;1631846;87;25589;-57
2022/08/04 04:49:42;;;;;;;22.13;17.00;;;;;;;18.66;77.58;98785.40;1632000;87;25492;-58
2022/08/04 04:52:33;;;;;;;21.23;16.93;;;;;;;18.72;77.24;98782.31;1632110;87;25754;-57
2022/08/04 04:55:08;;;;;;;19.98;15.95;;;;;;;18.85;77.02;98783.76;1631832;87;25678;-58
2022/08/04 04:57:36;;;;;;;24.77;16.95;;;;;;;19.02;76.68;98776.95;1631822;87;27394;-57
2022/08/04 05:00:09;;;;;;;18.95;16.00;;;;;;;19.16;76.52;98777.83;1631667;87;25639;-59
2022/08/04 05:02:47;;;;;;;22.25;16.15;;;;;;;19.23;75.75;98776.35;1632193;87;25675;-58
2022/08/04 05:05:41;;;;;;;21.17;16.07;;;;;;;19.29;75.50;98773.48;1639185;87;25690;-59
2022/08/04 05:08:29;;;;;;;18.15;15.00;;;;;;;19.38;75.31;98776.02;1632057;86;25457;-58
2022/08/04 05:11:15;;;;;;;18.48;14.75;;;;;;;19.41;75.06;98783.03;1639163;87;28191;-57
2022/08/04 05:13:50;;;;;;;21.57;15.78;;;;;;;19.58;74.91;98782.89;1631413;87;25812;-57
2022/08/04 05:16:28;;;;;;;19.95;16.20;;;;;;;19.74;74.62;98772.42;1631976;87;25487;-57
2022/08/04 05:19:20;;;;;;;18.55;15.38;;;;;;;19.86;74.06;98779.75;1632212;87;26643;-57
2022/08/04 05:21:51;;;;;;;16.65;14.87;;;;;;;19.89;73.68;98780.39;1632361;87;25669;-58
2022/08/04 05:24:21;;;;;;;17.98;15.45;;;;;;;19.96;73.79;98780.29;1630339;87;27406;-58
2022/08/04 05:26:56;;;;;;;17.85;14.95;;;;;;;20.09;73.63;98783.70;1613930;87;25812;-57
2022/08/04 05:29:34;;;;;;;20.12;15.80;;;;;;;20.06;73.08;98769.35;1632106;87;25465;-58
2022/08/04 05:32:04;;;;;;;16.95;14.85;;;;;;;20.09;73.18;98783.70;1613944;87;26526;-58
2022/08/04 05:34:35;;;;;;;21.45;15.93;;;;;;;20.12;72.91;98788.52;1632230;86;25510;-57
2022/08/04 05:37:08;;;;;;;19.75;15.48;;;;;;;20.28;73.31;98779.97;1631402;87;27398;-57
2022/08/04 05:39:49;;;;;;;19.40;15.60;;;;;;;20.56;72.61;98784.32;1631994;86;25661;-57
2022/08/04 05:42:16;;;;;;;16.93;15.13;;;;;;;20.67;72.64;98783.06;1630983;87;25671;-57
2022/08/04 05:44:43;;;;;;;18.25;15.03;;;;;;;20.87;71.79;98791.24;1632304;87;26536;-58
2022/08/04 05:47:11;;;;;;;19.90;15.80;;;;;;;21.01;71.22;98801.16;1631832;87;26038;-57
2022/08/04 05:49:43;;;;;;;17.77;14.70;;;;;;;21.23;70.68;98794.43;1632124;87;27406;-57
2022/08/04 05:52:12;;;;;;;18.75;15.10;;;;;;;21.43;70.13;98791.42;1631808;86;25876;-58
2022/08/04 05:54:39;;;;;;;16.15;14.30;;;;;;;21.54;70.21;98797.09;1632021;87;25664;-57
2022/08/04 05:57:07;;;;;;;16.17;14.33;;;;;;;21.71;69.53;98788.67;1632301;86;26632;-58
2022/08/04 05:59:38;;;;;;;18.82;14.95;;;;;;;21.61;69.33;98791.58;1631732;86;25660;-57
2022/08/04 06:02:07;;;;;;;20.95;15.28;;;;;;;21.56;69.68;98795.52;1632005;86;27824;-58
2022/08/04 06:04:39;;;;;;;16.65;13.80;;;;;;;21.78;69.46;98799.91;1632030;87;25741;-58
2022/08/04 06:07:07;;;;;;;15.55;13.22;;;;;;;21.84;68.91;98798.17;1624997;87;25491;-58
2022/08/04 06:09:34;;;;;;;16.55;13.88;;;;;;;21.93;68.23;98798.61;1623574;87;25868;-58
2022/08/04 06:12:05;;;;;;;17.98;14.20;;;;;;;22.01;67.92;98792.48;1622715;86;25411;-58
2022/08/04 06:14:37;;;;;;;14.93;13.32;;;;;;;22.02;67.61;98796.90;1623133;87;28430;-58
2022/08/04 06:17:07;;;;;;;17.20;13.10;;;;;;;22.25;67.58;98793.83;1622616;86;25873;-58
2022/08/04 06:19:36;;;;;;;15.68;13.38;;;;;;;22.44;66.69;98793.33;1623318;86;25636;-58
2022/08/04 06:22:05;;;;;;;14.70;12.35;;;;;;;22.58;66.53;98799.61;1623092;86;25795;-58
2022/08/04 06:24:35;;;;;;;15.30;11.93;;;;;;;22.64;65.58;98795.84;1620721;87;25674;-58
2022/08/04 06:27:04;;;;;;;17.70;12.85;;;;;;;22.52;65.18;98792.77;1621480;86;27837;-59
2022/08/04 06:29:40;;;;;;;14.95;13.35;;;;;;;22.44;66.66;98796.94;1658848;86;25458;-58
2022/08/04 06:32:25;;;;;;;14.80;12.95;;;;;;;22.68;66.11;98803.05;1602591;88;25701;-58
2022/08/04 06:34:38;;;;;;;14.47;12.80;;;;;;;22.85;65.65;98806.29;1598855;88;25524;-58
2022/08/04 06:37:07;;;;;;;13.38;11.97;;;;;;;23.06;64.57;98805.55;1602677;88;25692;-60
2022/08/04 06:39:35;;;;;;;14.00;12.30;;;;;;;23.25;64.36;98805.00;1606942;88;27457;-58
2022/08/04 06:42:03;;;;;;;15.28;11.70;;;;;;;23.43;63.79;98807.06;1627124;86;25522;-58
2022/08/04 06:44:31;;;;;;;14.35;11.35;;;;;;;23.60;63.34;98799.86;1627229;88;25489;-57
2022/08/04 06:46:59;;;;;;;15.08;11.75;;;;;;;23.80;62.33;98796.66;1627372;86;25907;-58
2022/08/04 06:49:26;;;;;;;12.47;10.98;;;;;;;23.73;62.30;98799.46;1628521;87;25900;-57
2022/08/04 06:51:55;;;;;;;14.65;11.68;;;;;;;23.79;61.72;98800.66;1628453;86;28035;-57
2022/08/04 06:54:21;;;;;;;14.13;11.15;;;;;;;23.75;61.96;98802.05;1628465;88;25830;-60
2022/08/04 06:56:50;;;;;;;12.93;11.45;;;;;;;23.84;61.35;98795.27;1628522;88;25431;-57
2022/08/04 06:59:19;;;;;;;11.63;10.43;;;;;;;23.86;61.17;98793.66;1628494;87;26166;-58
2022/08/04 07:01:46;;;;;;;11.35;10.15;;;;;;;23.99;60.41;98793.24;1628335;86;25454;-57
2022/08/04 07:04:13;;;;;;;13.13;10.80;;;;;;;24.18;60.15;98789.25;1628263;87;27959;-58
2022/08/04 07:06:40;;;;;;;13.48;10.88;;;;;;;24.35;58.82;98786.80;1623517;87;25875;-58
2022/08/04 07:09:08;;;;;;;12.13;10.60;;;;;;;24.40;60.12;98790.56;1622876;88;25510;-58
2022/08/04 07:11:35;;;;;;;11.73;10.53;;;;;;;24.60;60.11;98788.69;1623102;88;26064;-58
2022/08/04 07:14:04;;;;;;;11.38;10.20;;;;;;;24.61;59.75;98783.30;1622858;88;25692;-62
2022/08/04 07:16:33;;;;;;;11.83;10.63;;;;;;;24.84;59.33;98791.18;1625884;86;27531;-59
2022/08/04 07:19:00;;;;;;;12.28;10.40;;;;;;;25.17;57.70;98793.84;1679985;85;25880;-58
2022/08/04 07:21:26;;;;;;;11.75;10.48;;;;;;;25.20;57.26;98793.02;1662765;85;25624;-60
2022/08/04 07:23:53;;;;;;;12.07;10.88;;;;;;;25.41;58.46;98789.86;1628555;88;26843;-59
2022/08/04 07:26:27;;;;;;;11.30;10.10;;;;;;;25.55;56.83;98791.77;1628731;88;25438;-60
2022/08/04 07:28:53;;;;;;;13.43;10.08;;;;;;;25.58;56.20;98794.37;1628546;87;28351;-58
2022/08/04 07:31:22;;;;;;;11.90;9.50;;;;;;;25.77;56.04;98793.83;1627088;86;25439;-57
2022/08/04 07:33:49;;;;;;;10.25;9.08;;;;;;;25.83;55.06;98794.77;1625930;86;25677;-58
2022/08/04 07:36:16;;;;;;;11.80;9.28;;;;;;;26.03;54.62;98791.58;1622798;88;25753;-58
2022/08/04 07:38:44;;;;;;;12.78;9.43;;;;;;;26.23;54.41;98790.97;1625317;88;25607;-58
2022/08/04 07:41:11;;;;;;;10.23;8.98;;;;;;;26.33;55.08;98790.67;1622766;88;28246;-58
2022/08/04 07:43:39;;;;;;;10.03;8.83;;;;;;;26.48;54.40;98792.70;1622949;88;25701;-57
2022/08/04 07:46:07;;;;;;;9.60;8.65;;;;;;;26.80;55.12;98780.89;1623088;88;25653;-59
2022/08/04 07:48:34;;;;;;;9.75;8.78;;;;;;;27.19;53.41;98778.75;1603335;88;25771;-58
2022/08/04 07:51:01;;;;;;;10.50;8.48;;;;;;;27.34;51.50;98779.95;1622363;88;25614;-59
2022/08/04 07:53:28;;;;;;;9.80;8.80;;;;;;;27.38;50.82;98783.49;1637312;86;27495;-59
2022/08/04 07:55:56;;;;;;;8.88;8.05;;;;;;;27.54;50.68;98780.00;1660044;85;25648;-58
2022/08/04 07:58:22;;;;;;;8.90;8.10;;;;;;;27.81;50.72;98779.97;1640017;85;25679;-58
2022/08/04 08:00:48;;;;;;;7.92;7.22;;;;;;;28.02;50.12;98775.80;1616892;88;26607;-58
2022/08/04 08:03:16;;;;;;;8.70;7.80;;;;;;;28.29;48.42;98774.87;1622823;86;25455;-58
2022/08/04 08:05:42;;;;;;;9.03;7.40;;;;;;;28.49;47.27;98780.55;1623116;86;27786;-58
2022/08/04 08:08:10;;;;;;;7.80;7.00;;;;;;;28.71;47.99;98776.48;1629517;85;25482;-58
2022/08/04 08:10:38;;;;;;;8.45;7.65;;;;;;;29.18;48.29;98777.67;1631857;88;25621;-58
2022/08/04 08:13:06;;;;;;;7.75;7.05;;;;;;;29.47;46.94;98776.81;1631462;87;25899;-57
2022/08/04 08:15:34;;;;;;;8.55;7.75;;;;;;;29.68;45.60;98776.92;1632007;87;25467;-58
2022/08/04 08:18:00;;;;;;;7.53;6.75;;;;;;;29.86;45.65;98778.47;1631895;87;27493;-58
2022/08/04 08:20:29;;;;;;;6.85;6.17;;;;;;;30.20;44.27;98779.22;1631602;88;25691;-58
2022/08/04 08:22:57;;;;;;;6.97;6.17;;;;;;;30.42;42.75;98780.81;1632159;87;25688;-57
2022/08/04 08:25:24;;;;;;;7.20;6.60;;;;;;;30.55;42.20;98778.83;1631938;87;25733;-58
2022/08/04 08:27:50;;;;;;;8.18;6.55;;;;;;;30.79;42.75;98777.75;1632164;87;25482;-58
2022/08/04 08:30:17;;;;;;;7.97;7.15;;;;;;;31.08;42.36;98780.34;1631847;88;27509;-57
2022/08/04 08:32:43;;;;;;;6.92;5.75;;;;;;;31.56;41.60;98773.34;1631561;87;25477;-57
2022/08/04 08:35:09;;;;;;;7.03;6.42;;;;;;;31.65;40.89;98774.06;1631626;86;25696;-58
2022/08/04 08:37:50;;;;;;;6.53;5.90;;;;;;;31.53;39.54;98782.14;1631670;87;25737;-58
2022/08/04 08:40:31;;;;;;;6.42;5.83;;;;;;;31.63;41.13;98782.23;1630664;86;25795;-58
2022/08/04 08:43:17;;;;;;;6.37;5.85;;;;;;;31.99;39.87;98778.81;1631581;87;28513;-58
2022/08/04 08:46:09;;;;;;;6.90;6.20;;;;;;;32.34;39.58;98771.68;1631764;87;25512;-58
2022/08/04 08:49:02;;;;;;;7.87;6.20;;;;;;;32.28;38.18;98773.53;1631938;88;25723;-57
2022/08/04 08:51:40;;;;;;;6.70;5.90;;;;;;;32.08;39.00;98773.84;1631831;87;27808;-58
2022/08/04 08:54:21;;;;;;;6.72;6.03;;;;;;;32.03;38.54;98772.38;1628236;88;25482;-57
2022/08/04 08:56:59;;;;;;;6.20;5.60;;;;;;;32.23;39.31;98776.97;1634409;87;27496;-57
2022/08/04 08:59:55;;;;;;;6.20;5.60;;;;;;;32.71;38.56;98784.53;1634102;87;25665;-56
2022/08/04 09:02:45;;;;;;;5.37;4.90;;;;;;;33.12;36.96;98776.88;1633906;87;25632;-57
2022/08/04 09:05:22;;;;;;;6.05;4.55;;;;;;;33.42;36.90;98784.39;1633905;86;25946;-57
2022/08/04 09:08:31;;;;;;;5.60;5.10;;;;;;;33.54;35.45;98791.84;1630566;87;25467;-57
2022/08/04 09:11:14;;;;;;;5.80;5.20;;;;;;;33.69;35.47;98786.38;1627451;86;27908;-57
2022/08/04 09:14:17;;;;;;;6.10;4.72;;;;;;;33.87;35.33;98789.06;1620852;88;25737;-56
2022/08/04 09:16:58;;;;;;;5.30;4.80;;;;;;;34.41;34.90;98785.31;1637474;87;25640;-57
2022/08/04 09:19:41;;;;;;;4.90;4.40;;;;;;;34.48;33.93;98781.33;1642365;85;25618;-57
2022/08/04 09:22:42;;;;;;;4.72;4.33;;;;;;;34.35;33.28;98777.26;1602910;89;25669;-57
2022/08/04 09:25:24;;;;;;;4.20;3.90;;;;;;;34.65;32.79;98781.01;1602644;88;28642;-57
2022/08/04 09:27:54;;;;;;;4.30;4.00;;;;;;;34.89;33.05;98776.85;1602526;88;25886;-59
2022/08/04 09:30:38;;;;;;;4.75;4.20;;;;;;;35.16;32.61;98778.62;1612281;88;25624;-59
2022/08/04 09:33:36;;;;;;;5.42;3.60;;;;;;;35.28;32.21;98774.00;1622869;88;25693;-57
2022/08/04 09:36:36;;;;;;;5.28;4.20;;;;;;;35.50;30.69;98775.16;1592683;89;25702;-57
2022/08/04 09:39:19;;;;;;;4.40;4.00;;;;;;;35.46;31.89;98777.41;1539711;92;28324;-57
2022/08/04 09:42:25;;;;;;;4.20;3.80;;;;;;;35.20;31.46;98773.56;1544234;92;25795;-58
2022/08/04 09:45:08;;;;;;;4.80;3.90;;;;;;;34.93;31.24;98777.31;1543788;92;25728;-58
2022/08/04 09:47:58;;;;;;;4.87;3.92;;;;;;;35.25;30.63;98768.64;1544138;92;25781;-58
2022/08/04 09:50:35;;;;;;;4.40;4.00;;;;;;;35.17;29.93;98766.75;1543977;92;25758;-59
2022/08/04 09:53:31;;;;;;;4.05;3.75;;;;;;;34.96;30.17;98767.16;1550332;89;27429;-59
2022/08/04 09:56:11;;;;;;;3.75;3.50;;;;;;;34.90;30.40;98761.34;1555005;92;26445;-59
2022/08/04 09:59:19;;;;;;;3.83;3.52;;;;;;;34.91;29.71;98758.64;1599902;89;25531;-59
2022/08/04 10:01:50;;;;;;;4.20;3.60;;;;;;;35.36;29.78;98755.30;1570277;91;25787;-59
2022/08/04 10:04:19;;;;;;;3.40;3.17;;;;;;;35.91;30.29;98753.98;1570511;91;25509;-61
2022/08/04 10:07:25;;;;;;;5.05;3.65;;;;;;;35.78;28.56;98765.00;1571430;91;28163;-60
2022/08/04 10:10:22;;;;;;;3.80;3.27;;;;;;;35.84;27.78;98764.34;1560422;91;25838;-57
2022/08/04 10:13:03;;;;;;;3.60;3.35;;;;;;;35.59;27.91;98760.05;1576763;89;25797;-59
2022/08/04 10:15:52;;;;;;;3.87;3.50;;;;;;;35.98;27.54;98754.25;1603676;88;25862;-57
2022/08/04 10:18:51;;;;;;;3.60;3.30;;;;;;;36.28;27.65;98760.83;1652269;86;25672;-56
2022/08/04 10:21:59;;;;;;;5.25;3.33;;;;;;;36.70;28.05;98755.32;1637377;86;28380;-57
2022/08/04 10:24:51;;;;;;;3.75;3.25;;;;;;;36.74;27.22;98755.93;1653605;86;25597;-59
2022/08/04 10:27:46;;;;;;;5.05;3.30;;;;;;;36.79;27.21;98760.16;1653038;86;25499;-58
2022/08/04 10:30:16;;;;;;;4.65;3.40;;;;;;;36.99;27.18;98755.80;1648244;86;27666;-58
2022/08/04 10:33:03;;;;;;;3.55;3.25;;;;;;;37.29;26.64;98752.88;1590342;90;25674;-58
2022/08/04 10:35:47;;;;;;;3.30;3.10;;;;;;;37.37;26.44;98753.24;1602680;88;27474;-65
2022/08/04 10:38:36;;;;;;;3.17;2.95;;;;;;;37.21;26.36;98753.16;1602596;88;25496;-64
2022/08/04 10:41:26;;;;;;;3.20;3.00;;;;;;;36.83;25.93;98755.66;1602915;89;25641;-65
2022/08/04 10:44:17;;;;;;;3.08;2.87;;;;;;;36.83;25.93;98755.66;1602673;88;25802;-65
2022/08/04 10:46:49;;;;;;;4.17;3.00;;;;;;;37.36;25.69;98749.59;1615324;86;25611;-65
2022/08/04 10:49:37;;;;;;;4.90;2.80;;;;;;;37.39;25.78;98757.83;1626410;86;27437;-58
2022/08/04 10:52:43;;;;;;;3.22;3.02;;;;;;;37.33;25.89;98746.95;1627256;87;25455;-59
2022/08/04 10:55:20;;;;;;;3.95;3.35;;;;;;;37.66;25.97;98747.25;1627080;88;25636;-59
2022/08/04 10:58:04;;;;;;;4.80;3.62;;;;;;;37.83;25.85;98739.55;1627745;86;25870;-59
2022/08/04 11:00:35;;;;;;;3.67;3.37;;;;;;;37.93;25.55;98740.95;1626192;86;25608;-59
2022/08/04 11:03:14;;;;;;;3.45;3.00;;;;;;;37.99;24.80;98735.33;1627244;86;27780;-58
2022/08/04 11:05:52;;;;;;;3.20;2.90;;;;;;;38.13;24.85;98733.66;1616961;86;25522;-58
2022/08/04 11:08:39;;;;;;;3.27;2.98;;;;;;;38.30;24.72;98733.06;1624184;86;25539;-58
2022/08/04 11:11:26;;;;;;;3.52;3.22;;;;;;;38.44;24.21;98739.92;1626354;87;25741;-58
2022/08/04 11:14:03;;;;;;;3.37;2.70;;;;;;;37.80;25.09;98736.27;1627270;87;25616;-57
2022/08/04 11:16:52;;;;;;;3.37;2.98;;;;;;;37.73;24.78;98740.36;1627371;88;27632;-58
2022/08/04 11:19:59;;;;;;;2.75;2.55;;;;;;;37.34;24.24;98737.09;1627303;87;25625;-58
2022/08/04 11:22:27;;;;;;;3.00;2.80;;;;;;;37.22;24.27;98733.30;1627222;87;25500;-59
2022/08/04 11:25:17;;;;;;;3.47;3.05;;;;;;;37.44;24.37;98725.66;1627340;88;25794;-58
2022/08/04 11:28:14;;;;;;;4.83;3.20;;;;;;;37.52;24.65;98726.82;1627576;87;25725;-58
2022/08/04 11:30:46;;;;;;;3.20;3.00;;;;;;;37.76;25.58;98727.25;1627338;87;27435;-58
2022/08/04 11:33:47;;;;;;;3.40;3.15;;;;;;;38.18;24.39;98727.84;1626834;87;25636;-58
2022/08/04 11:36:19;;;;;;;3.37;3.08;;;;;;;38.42;24.76;98726.79;1627134;87;25423;-58
2022/08/04 11:39:16;;;;;;;4.65;2.83;;;;;;;38.75;24.75;98729.18;1626447;86;25689;-59
2022/08/04 11:42:06;;;;;;;3.17;2.87;;;;;;;38.99;23.80;98733.76;1627281;86;25412;-60
2022/08/04 11:45:05;;;;;;;3.00;2.80;;;;;;;38.61;23.15;98734.36;1623161;88;27449;-58
2022/08/04 11:47:49;;;;;;;3.47;3.17;;;;;;;38.70;23.94;98729.11;1623185;88;25431;-59
2022/08/04 11:50:43;;;;;;;2.87;2.67;;;;;;;38.95;22.76;98728.13;1622516;88;25464;-59
2022/08/04 11:53:16;;;;;;;2.87;2.67;;;;;;;39.12;23.72;98731.14;1623045;88;25723;-59
2022/08/04 11:55:48;;;;;;;3.60;3.00;;;;;;;39.38;22.40;98722.43;1624731;86;25785;-59
2022/08/04 11:58:14;;;;;;;6.65;3.55;;;;;;;39.73;23.49;98721.94;1612037;88;25928;-60
2022/08/04 12:00:52;;;;;;;4.20;3.35;;;;;;;39.60;23.29;98721.64;1623076;88;25666;-59
2022/08/04 12:04:06;;;;;;;3.22;3.02;;;;;;;39.15;24.56;98718.02;1623129;88;25464;-62
2022/08/04 12:07:08;;;;;;;4.45;3.08;;;;;;;38.84;24.19;98718.17;1622057;88;25743;-60
2022/08/04 12:10:08;;;;;;;3.10;2.85;;;;;;;38.81;23.88;98716.33;1550864;90;25762;-60
2022/08/04 12:13:00;;;;;;;3.25;2.98;;;;;;;39.25;23.17;98707.75;1606728;89;27632;-60
2022/08/04 12:15:35;;;;;;;3.30;3.00;;;;;;;39.31;24.59;98703.50;1562504;90;25763;-59
2022/08/04 12:18:35;;;;;;;3.75;3.12;;;;;;;39.76;23.05;98707.20;1564834;91;25766;-60
2022/08/04 12:21:11;;;;;;;3.40;3.10;;;;;;;39.80;23.51;98705.53;1564974;91;26344;-63
2022/08/04 12:23:42;;;;;;;3.30;3.10;;;;;;;38.89;24.08;98700.89;1564758;91;25776;-59
2022/08/04 12:26:19;;;;;;;3.30;3.00;;;;;;;38.20;24.67;98695.24;1565083;91;27379;-60
2022/08/04 12:28:49;;;;;;;3.10;2.90;;;;;;;38.28;23.83;98697.13;1585717;90;25874;-59